createdAt,value
2023-04-14T00:01:22.591Z,7.98
2023-04-14T00:04:25.557Z,7.93
2023-04-14T00:07:28.286Z,7.86
2023-04-14T00:10:30.804Z,7.75
2023-04-14T00:13:34.720Z,7.67
2023-04-14T00:16:39.421Z,7.57
2023-04-14T00:19:41.961Z,7.52
2023-04-14T00:22:44.521Z,7.50
2023-04-14T00:25:47.146Z,7.45
2023-04-14T00:28:51.172Z,7.34
2023-04-14T00:31:53.848Z,7.27
2023-04-14T00:34:57.058Z,7.17
2023-04-14T00:37:59.544Z,7.03
2023-04-14T00:41:02.211Z,6.88
2023-04-14T00:44:06.530Z,6.79
2023-04-14T00:47:09.080Z,6.74
2023-04-14T00:50:12.040Z,6.71
2023-04-14T00:53:15.364Z,6.58
2023-04-14T00:56:18.605Z,6.62
2023-04-14T00:59:22.696Z,6.51
2023-04-14T01:02:26.301Z,6.39
2023-04-14T01:05:28.844Z,6.41
2023-04-14T01:08:31.984Z,6.37
2023-04-14T01:11:39.786Z,6.34
2023-04-14T01:14:48.359Z,6.32
2023-04-14T01:17:58.650Z,6.24
2023-04-14T01:21:05.403Z,6.21
2023-04-14T01:24:31.767Z,6.12
2023-04-14T01:27:40.662Z,6.05
2023-04-14T01:30:58.241Z,5.99
2023-04-14T01:34:06.859Z,6.14
2023-04-14T01:37:15.412Z,6.09
2023-04-14T01:40:19.734Z,5.95
2023-04-14T01:43:26.535Z,5.77
2023-04-14T01:46:29.179Z,5.72
2023-04-14T01:49:34.277Z,5.60
2023-04-14T01:52:37.449Z,5.48
2023-04-14T01:55:42.266Z,5.35
2023-04-14T01:58:46.670Z,5.35
2023-04-14T02:01:50.430Z,5.33
2023-04-14T02:04:54.277Z,5.33
2023-04-14T02:07:58.143Z,5.26
2023-04-14T02:11:02.051Z,5.23
2023-04-14T02:14:05.311Z,5.20
2023-04-14T02:17:08.779Z,5.14
2023-04-14T02:20:14.815Z,5.06
2023-04-14T02:23:17.344Z,5.05
2023-04-14T02:26:22.783Z,5.10
2023-04-14T02:29:26.312Z,5.11
2023-04-14T02:32:31.041Z,5.01
2023-04-14T02:35:39.908Z,5.01
2023-04-14T02:38:47.131Z,5.03
2023-04-14T02:41:54.568Z,4.96
2023-04-14T02:45:01.469Z,5.05
2023-04-14T02:48:09.652Z,5.02
2023-04-14T02:51:14.614Z,4.94
2023-04-14T02:54:19.282Z,4.95
2023-04-14T02:57:23.138Z,4.94
2023-04-14T03:00:26.005Z,4.96
2023-04-14T03:03:29.363Z,4.97
2023-04-14T03:06:33.426Z,4.95
2023-04-14T03:09:36.385Z,4.98
2023-04-14T03:12:39.146Z,4.92
2023-04-14T03:15:42.871Z,4.94
2023-04-14T03:18:46.400Z,4.93
2023-04-14T03:21:51.032Z,4.79
2023-04-14T03:24:58.074Z,4.73
2023-04-14T03:28:02.736Z,4.70
2023-04-14T03:31:06.339Z,4.69
2023-04-14T03:34:09.874Z,4.60
2023-04-14T03:37:16.302Z,4.70
2023-04-14T03:40:18.932Z,4.75
2023-04-14T03:43:22.762Z,4.90
2023-04-14T03:46:28.425Z,4.95
2023-04-14T03:49:33.286Z,4.93
2023-04-14T03:52:39.233Z,4.90
2023-04-14T03:55:43.850Z,4.90
2023-04-14T03:58:49.271Z,4.80
2023-04-14T04:01:52.212Z,4.70
2023-04-14T04:04:56.814Z,4.57
2023-04-14T04:08:03.046Z,4.51
2023-04-14T04:11:07.088Z,4.55
2023-04-14T04:14:10.738Z,4.57
2023-04-14T04:17:15.404Z,4.51
2023-04-14T04:20:18.209Z,4.40
2023-04-14T04:23:22.765Z,4.46
2023-04-14T04:26:25.782Z,4.40
2023-04-14T04:29:28.575Z,4.29
2023-04-14T04:32:31.819Z,4.22
2023-04-14T04:35:35.827Z,4.19
2023-04-14T04:38:39.791Z,4.16
2023-04-14T04:41:42.448Z,4.27
2023-04-14T04:44:45.022Z,4.22
2023-04-14T04:47:47.596Z,4.27
2023-04-14T04:50:50.392Z,4.22
2023-04-14T04:53:54.391Z,4.33
2023-04-14T04:56:57.553Z,4.30
2023-04-14T05:00:00.643Z,4.25
2023-04-14T05:03:03.458Z,4.38
2023-04-14T05:06:06.988Z,4.38
2023-04-14T05:09:10.992Z,4.35
2023-04-14T05:12:13.775Z,4.44
2023-04-14T05:15:16.671Z,4.43
2023-04-14T05:18:19.523Z,4.50
2023-04-14T05:21:22.404Z,4.65
2023-04-14T05:24:27.331Z,4.71
2023-04-14T05:27:30.070Z,4.79
2023-04-14T05:30:32.721Z,4.89
2023-04-14T05:33:36.378Z,4.94
2023-04-14T05:36:39.391Z,5.01
2023-04-14T05:39:43.521Z,5.11
2023-04-14T05:42:46.056Z,5.18
2023-04-14T05:45:48.728Z,5.29
2023-04-14T05:48:51.472Z,5.38
2023-04-14T05:51:56.008Z,5.47
2023-04-14T05:55:00.007Z,5.56
2023-04-14T05:58:02.750Z,5.65
2023-04-14T06:01:06.343Z,5.74
2023-04-14T06:04:09.493Z,5.87
2023-04-14T06:07:12.460Z,6.00
2023-04-14T06:10:16.426Z,6.15
2023-04-14T06:13:22.796Z,6.29
2023-04-14T06:16:25.771Z,6.38
2023-04-14T06:19:28.492Z,6.36
2023-04-14T06:22:31.332Z,6.37
2023-04-14T06:25:35.246Z,6.38
2023-04-14T06:28:37.786Z,6.41
2023-04-14T06:31:40.537Z,6.40
2023-04-14T06:34:43.085Z,6.36
2023-04-14T06:37:45.865Z,6.39
2023-04-14T06:40:51.917Z,6.52
2023-04-14T06:43:55.846Z,6.72
2023-04-14T06:46:59.166Z,6.99
2023-04-14T06:50:03.253Z,7.21
2023-04-14T06:53:07.108Z,7.33
2023-04-14T06:56:11.159Z,7.63
2023-04-14T06:59:14.078Z,7.88
2023-04-14T07:02:16.644Z,8.17
2023-04-14T07:05:19.777Z,8.41
2023-04-14T07:08:22.835Z,8.54
2023-04-14T07:11:26.922Z,8.66
2023-04-14T07:14:29.558Z,8.79
2023-04-14T07:17:32.664Z,8.94
2023-04-14T07:20:35.299Z,9.09
2023-04-14T07:23:37.894Z,9.31
2023-04-14T07:26:42.894Z,9.38
2023-04-14T07:29:45.447Z,9.42
2023-04-14T07:32:48.331Z,9.57
2023-04-14T07:36:01.893Z,9.64
2023-04-14T07:39:05.302Z,9.77
2023-04-14T07:42:09.192Z,9.89
2023-04-14T07:45:12.025Z,10.13
2023-04-14T07:48:14.618Z,10.25
2023-04-14T07:51:17.355Z,10.33
2023-04-14T07:54:20.139Z,10.47
2023-04-14T07:57:24.042Z,10.60
2023-04-14T08:00:27.107Z,10.64
2023-04-14T08:03:29.869Z,10.69
2023-04-14T08:06:32.916Z,10.84
2023-04-14T08:09:35.781Z,10.94
2023-04-14T08:12:39.914Z,10.83
2023-04-14T08:15:42.569Z,10.96
2023-04-14T08:18:45.260Z,11.05
2023-04-14T08:21:47.842Z,11.14
2023-04-14T08:24:50.624Z,11.25
2023-04-14T08:27:54.608Z,11.40
2023-04-14T08:30:57.369Z,11.66
2023-04-14T08:34:00.437Z,11.70
2023-04-14T08:37:03.146Z,11.74
2023-04-14T08:40:07.740Z,11.76
2023-04-14T08:43:14.576Z,11.49
2023-04-14T08:46:19.339Z,11.76
2023-04-14T08:49:29.890Z,11.71
2023-04-14T08:52:34.335Z,12.26
2023-04-14T08:55:38.092Z,12.69
2023-04-14T08:58:43.181Z,13.11
2023-04-14T09:01:46.758Z,13.38
2023-04-14T09:04:49.961Z,13.13
2023-04-14T09:07:53.318Z,12.96
2023-04-14T09:10:56.051Z,12.62
2023-04-14T09:14:01.835Z,12.80
2023-04-14T09:17:04.708Z,12.21
2023-04-14T09:20:35.295Z,12.18
2023-04-14T09:23:31.743Z,12.41
2023-04-14T09:26:34.406Z,12.32
2023-04-14T09:29:39.037Z,12.48
2023-04-14T09:32:42.367Z,13.04
2023-04-14T09:35:47.447Z,12.88
2023-04-14T09:38:51.878Z,13.12
2023-04-14T09:41:54.623Z,13.43
2023-04-14T09:45:01.236Z,13.33
2023-04-14T09:48:07.659Z,13.22
2023-04-14T09:51:10.578Z,13.76
2023-04-14T09:54:13.238Z,14.72
2023-04-14T09:57:25.808Z,14.78
2023-04-14T10:00:32.906Z,14.17
2023-04-14T10:03:37.913Z,14.48
2023-04-14T10:06:41.849Z,14.78
2023-04-14T10:09:49.158Z,15.24
2023-04-14T10:12:53.962Z,15.62
2023-04-14T10:15:58.194Z,15.14
2023-04-14T10:19:02.266Z,14.88
2023-04-14T10:22:06.660Z,15.51
2023-04-14T10:25:10.752Z,15.92
2023-04-14T10:28:14.062Z,15.87
2023-04-14T10:31:20.723Z,16.12
2023-04-14T10:34:24.362Z,15.91
2023-04-14T10:37:26.929Z,16.46
2023-04-14T10:40:46.528Z,16.77
2023-04-14T10:43:49.120Z,15.54
2023-04-14T10:46:56.330Z,14.90
2023-04-14T10:50:04.181Z,14.21
2023-04-14T10:53:09.368Z,14.60
2023-04-14T10:56:12.037Z,15.09
2023-04-14T10:59:17.380Z,14.89
2023-04-14T11:02:26.433Z,15.53
2023-04-14T11:05:29.188Z,15.97
2023-04-14T11:08:35.659Z,15.89
2023-04-14T11:11:38.172Z,15.79
2023-04-14T11:14:40.863Z,15.26
2023-04-14T11:17:45.434Z,15.56
2023-04-14T11:20:48.137Z,15.04
2023-04-14T11:23:50.735Z,14.97
2023-04-14T11:26:54.700Z,15.24
2023-04-14T11:29:57.639Z,15.86
2023-04-14T11:33:01.853Z,15.05
2023-04-14T11:36:06.373Z,15.34
2023-04-14T11:39:09.142Z,14.77
2023-04-14T11:42:11.985Z,15.20
2023-04-14T11:45:16.440Z,15.14
2023-04-14T11:48:21.756Z,15.82
2023-04-14T11:51:30.622Z,15.43
2023-04-14T11:54:36.486Z,15.89
2023-04-14T11:57:39.221Z,15.77
2023-04-14T12:00:42.897Z,15.93
2023-04-14T12:03:47.239Z,16.10
2023-04-14T12:06:49.981Z,16.80
2023-04-14T12:09:52.698Z,17.54
2023-04-14T12:13:00.806Z,18.00
2023-04-14T12:16:03.593Z,18.40
2023-04-14T12:19:07.629Z,18.79
2023-04-14T12:22:10.375Z,17.55
2023-04-14T12:25:13.720Z,17.49
2023-04-14T12:28:18.615Z,17.00
2023-04-14T12:31:28.507Z,17.51
2023-04-14T12:34:33.054Z,17.61
2023-04-14T12:37:35.840Z,17.86
2023-04-14T12:40:40.103Z,17.82
2023-04-14T12:43:42.742Z,18.13
2023-04-14T12:46:49.934Z,16.88
2023-04-14T12:49:54.848Z,16.40
2023-04-14T12:52:59.897Z,19.09
2023-04-14T12:56:10.276Z,25.49
2023-04-14T12:59:13.235Z,31.73
2023-04-14T13:02:15.883Z,34.47
2023-04-14T13:05:20.089Z,35.45
2023-04-14T13:08:23.526Z,36.50
2023-04-14T13:11:26.112Z,36.47
2023-04-14T13:14:28.632Z,33.91
2023-04-14T13:17:31.340Z,36.08
2023-04-14T13:20:35.320Z,36.88
2023-04-14T13:23:37.955Z,36.60
2023-04-14T13:26:40.999Z,38.33
2023-04-14T13:29:43.542Z,35.92
2023-04-14T13:32:46.781Z,37.56
2023-04-14T13:35:51.451Z,35.88
2023-04-14T13:38:54.148Z,36.57
2023-04-14T13:41:57.595Z,34.72
2023-04-14T13:45:00.385Z,36.93
2023-04-14T13:48:03.300Z,39.15
2023-04-14T13:51:07.294Z,41.11
2023-04-14T13:54:10.081Z,43.78
2023-04-14T13:57:12.930Z,44.01
2023-04-14T14:00:16.362Z,38.52
2023-04-14T14:03:19.293Z,39.27
2023-04-14T14:06:23.323Z,38.92
2023-04-14T14:09:26.105Z,39.32
2023-04-14T14:12:29.004Z,39.52
2023-04-14T14:15:31.431Z,39.10
2023-04-14T14:18:34.165Z,38.01
2023-04-14T14:21:38.191Z,37.98
2023-04-14T14:24:41.514Z,29.27
2023-04-14T14:27:45.170Z,35.29
2023-04-14T14:30:47.900Z,37.24
2023-04-14T14:33:50.435Z,39.49
2023-04-14T14:36:55.351Z,38.03
2023-04-14T14:39:58.307Z,41.28
2023-04-14T14:43:01.016Z,43.23
2023-04-14T14:46:03.639Z,43.68
2023-04-14T14:49:06.536Z,37.50
2023-04-14T14:52:10.331Z,35.28
2023-04-14T14:55:13.059Z,37.62
2023-04-14T14:58:15.598Z,29.59
2023-04-14T15:01:18.113Z,24.25
2023-04-14T15:04:21.817Z,22.94
2023-04-14T15:07:26.119Z,33.22
2023-04-14T15:10:28.731Z,38.59
2023-04-14T15:13:32.615Z,32.40
2023-04-14T15:16:35.251Z,25.54
2023-04-14T15:19:39.120Z,26.90
2023-04-14T15:22:43.147Z,23.90
2023-04-14T15:25:45.729Z,21.51
2023-04-14T15:28:48.333Z,20.13
2023-04-14T15:31:50.975Z,19.81
2023-04-14T15:34:55.142Z,22.86
2023-04-14T15:37:59.324Z,31.38
2023-04-14T15:41:01.942Z,33.59
2023-04-14T15:44:04.857Z,27.57
2023-04-14T15:47:07.441Z,23.42
2023-04-14T15:50:11.977Z,21.59
2023-04-14T15:53:17.414Z,20.79
2023-04-14T15:56:23.168Z,26.27
2023-04-14T15:59:26.524Z,34.19
2023-04-14T16:02:29.408Z,36.21
2023-04-14T16:05:32.103Z,34.56
2023-04-14T16:08:36.262Z,32.63
2023-04-14T16:11:39.181Z,30.07
2023-04-14T16:14:42.716Z,35.88
2023-04-14T16:17:45.589Z,37.79
2023-04-14T16:20:50.160Z,36.64
2023-04-14T16:23:54.263Z,37.74
2023-04-14T16:26:57.690Z,37.12
2023-04-14T16:30:00.492Z,33.72
2023-04-14T16:33:03.180Z,31.71
2023-04-14T16:36:07.832Z,34.23
2023-04-14T16:39:12.292Z,34.68
2023-04-14T16:42:18.598Z,35.17
2023-04-14T16:45:21.302Z,33.58
2023-04-14T16:48:23.921Z,32.00
2023-04-14T16:51:27.352Z,27.78
2023-04-14T16:54:31.780Z,25.27
2023-04-14T16:57:34.281Z,23.40
2023-04-14T17:00:37.316Z,22.09
2023-04-14T17:03:40.237Z,20.62
2023-04-14T17:06:42.971Z,19.83
2023-04-14T17:09:47.145Z,18.84
2023-04-14T17:12:49.725Z,17.39
2023-04-14T17:18:58.299Z,16.19
2023-04-14T17:22:00.900Z,15.93
2023-04-14T17:25:06.509Z,15.68
2023-04-14T17:28:09.524Z,15.48
2023-04-14T17:31:14.148Z,15.24
2023-04-14T17:34:19.208Z,15.03
2023-04-14T17:37:22.560Z,14.72
2023-04-14T17:40:27.523Z,14.69
2023-04-14T17:43:30.128Z,14.47
2023-04-14T17:46:34.545Z,14.30
2023-04-14T17:49:37.328Z,14.03
2023-04-14T17:52:40.467Z,13.84
2023-04-14T17:55:44.851Z,13.82
2023-04-14T17:58:48.047Z,13.60
2023-04-14T18:01:51.007Z,13.48
2023-04-14T18:04:53.706Z,13.30
2023-04-14T18:07:56.434Z,13.16
2023-04-14T18:11:00.754Z,13.07
2023-04-14T18:14:04.204Z,12.87
2023-04-14T18:17:07.423Z,12.65
2023-04-14T18:20:11.757Z,12.41
2023-04-14T18:23:14.552Z,12.21
2023-04-14T18:29:24.572Z,11.67
2023-04-14T18:32:29.801Z,11.40
2023-04-14T18:35:33.650Z,11.26
2023-04-14T18:38:36.352Z,11.20
2023-04-14T18:41:40.446Z,11.14
2023-04-14T18:44:43.065Z,11.06
2023-04-14T18:47:46.088Z,10.83
2023-04-14T18:50:49.245Z,10.74
2023-04-14T18:53:51.799Z,10.66
2023-04-14T18:56:55.727Z,10.61
2023-04-14T18:59:59.446Z,10.31
2023-04-14T19:03:04.492Z,10.25
2023-04-14T19:06:07.355Z,10.21
2023-04-14T19:09:10.098Z,10.05
2023-04-14T19:12:25.393Z,10.02
2023-04-14T19:15:30.467Z,9.82
2023-04-14T19:18:32.981Z,9.72
2023-04-14T19:21:35.693Z,9.75
2023-04-14T19:24:39.014Z,9.78
2023-04-14T19:27:43.421Z,9.64
2023-04-14T19:30:46.542Z,9.48
2023-04-14T19:33:49.348Z,9.40
2023-04-14T19:36:52.027Z,9.32
2023-04-14T19:39:54.546Z,9.33
2023-04-14T19:42:58.380Z,9.27
2023-04-14T19:46:04.622Z,9.15
2023-04-14T19:49:07.366Z,9.12
2023-04-14T19:52:09.922Z,9.05
2023-04-14T19:55:13.181Z,9.04
2023-04-14T19:58:18.740Z,8.93
2023-04-14T20:01:24.047Z,8.92
2023-04-14T20:04:27.216Z,8.95
2023-04-14T20:07:29.882Z,8.98
2023-04-14T20:10:32.700Z,8.86
2023-04-14T20:13:38.122Z,8.84
2023-04-14T20:16:40.713Z,8.74
2023-04-14T20:19:44.534Z,8.75
2023-04-14T20:22:46.900Z,8.73
2023-04-14T20:25:50.635Z,8.58
2023-04-14T20:28:54.446Z,8.48
2023-04-14T20:31:57.087Z,8.43
2023-04-14T20:35:00.105Z,8.44
2023-04-14T20:38:02.838Z,8.52
2023-04-14T20:41:05.756Z,8.60
2023-04-14T20:44:09.766Z,8.41
2023-04-14T20:47:12.311Z,8.34
2023-04-14T20:50:14.874Z,8.19
2023-04-14T20:53:17.915Z,8.09
2023-04-14T20:56:20.477Z,8.11
2023-04-14T20:59:24.428Z,8.05
2023-04-14T21:02:27.497Z,8.03
2023-04-14T21:05:30.214Z,7.94
2023-04-14T21:08:32.684Z,7.82
2023-04-14T21:11:35.254Z,7.81
2023-04-14T21:15:29.632Z,7.78
2023-04-14T21:18:02.419Z,7.80
2023-04-14T21:21:06.001Z,7.80
2023-04-14T21:24:09.230Z,7.73
2023-04-14T21:27:11.986Z,7.84
2023-04-14T21:30:17.497Z,7.98
2023-04-14T21:33:20.142Z,7.93
2023-04-14T21:36:22.954Z,7.84
2023-04-14T21:39:28.323Z,7.67
2023-04-14T21:42:30.939Z,7.59
2023-04-14T21:45:34.838Z,7.35
2023-04-14T21:48:37.451Z,7.10
2023-04-14T21:51:40.051Z,7.07
2023-04-14T21:54:44.310Z,7.07
2023-04-14T21:57:49.705Z,7.19
2023-04-14T22:00:54.007Z,7.26
2023-04-14T22:03:56.668Z,7.23
2023-04-14T22:06:59.448Z,7.11
2023-04-14T22:10:02.198Z,7.04
2023-04-14T22:13:04.732Z,7.03
2023-04-14T22:16:11.204Z,6.99
2023-04-14T22:19:14.253Z,6.99
2023-04-14T22:22:17.223Z,7.01
2023-04-14T22:25:20.409Z,7.07
2023-04-14T22:28:23.040Z,7.04
2023-04-14T22:31:27.787Z,6.92
2023-04-14T22:34:30.640Z,6.93
2023-04-14T22:37:33.262Z,6.90
2023-04-14T22:40:35.919Z,6.89
2023-04-14T22:43:38.434Z,6.94
2023-04-14T22:46:42.335Z,7.04
2023-04-14T22:49:44.834Z,6.89
2023-04-14T22:52:47.404Z,6.86
2023-04-14T22:55:50.065Z,6.71
2023-04-14T22:58:52.600Z,6.64
2023-04-14T23:01:56.975Z,6.47
2023-04-14T23:04:59.599Z,6.34
2023-04-14T23:08:02.201Z,6.31
2023-04-14T23:11:05.173Z,6.38
2023-04-14T23:14:07.627Z,6.34
2023-04-14T23:17:11.775Z,6.38
2023-04-14T23:20:14.402Z,6.41
2023-04-14T23:23:17.068Z,6.28
2023-04-14T23:26:22.721Z,6.35
2023-04-14T23:29:25.226Z,6.35
2023-04-14T23:32:29.265Z,6.25
2023-04-14T23:35:31.795Z,6.21
2023-04-14T23:38:34.402Z,6.28
2023-04-14T23:41:36.979Z,6.34
2023-04-14T23:44:39.517Z,6.17
2023-04-14T23:47:43.476Z,6.07
2023-04-14T23:51:00.375Z,6.01
2023-04-14T23:54:08.582Z,5.83
2023-04-14T23:57:11.305Z,5.78
